KJWN

John C Tune Airport

Nashville, Tennessee, USA
METAR KJWN 151335Z AUTO 30006KT 10SM OVC030 00/M06 A3013 RMK A01
Observed Flight Rules
Dec-15 @ 13:35 UTC (31 minutes ago) Marginal Visual Flight Rules
Wind Visibility Clouds
300° at 6 knots 10 miles
  • Overcast at 3,000' AGL
Temperatures Readings
Current 0°C / 32°F
Dewpoint -6°C / 21°F
Humidity 64%
Altimeter 30.13" Hg
Pressure 1020 hPa
Elevation 151
METAR KJWN 151335Z AUTO 30006KT 10SM OVC030 00/M06 A3013 RMK A01
Observed Flight Rules
Dec-15 @ 13:35 UTC
(31 minutes ago)
MVFR
Wind Visibility
300° at 6 knots 10 miles
Clouds
  • Overcast at 3,000' AGL
Temperature Dewpoint
0°C / 32°F -6°C / 21°F
Humidity Altimeter Pressure
64% 30.13" Hg 1020 hPa